createdAt,value
2022-12-23T00:03:33.501Z,91.80
2022-12-23T00:08:35.823Z,91.50
2022-12-23T00:13:39.638Z,91.50
2022-12-23T00:18:42.796Z,91.60
2022-12-23T00:23:46.754Z,91.50
2022-12-23T00:28:50.850Z,91.50
2022-12-23T00:33:53.386Z,91.50
2022-12-23T00:38:56.583Z,91.50
2022-12-23T00:44:00.365Z,91.50
2022-12-23T00:49:02.619Z,91.50
2022-12-23T00:54:05.639Z,91.60
2022-12-23T00:59:09.175Z,91.50
2022-12-23T01:04:12.886Z,91.50
2022-12-23T01:09:15.041Z,91.50
2022-12-23T01:14:18.667Z,91.50
2022-12-23T01:19:20.953Z,91.50
2022-12-23T01:24:23.585Z,91.40
2022-12-23T01:29:27.195Z,91.40
2022-12-23T01:34:36.082Z,91.40
2022-12-23T01:39:39.039Z,91.40
2022-12-23T01:44:58.231Z,91.40
2022-12-23T01:50:05.015Z,91.40
2022-12-23T01:55:09.006Z,91.40
2022-12-23T02:00:13.618Z,91.80
2022-12-23T02:05:16.835Z,91.40
2022-12-23T02:10:19.735Z,91.50
2022-12-23T02:15:37.183Z,91.50
2022-12-23T02:21:20.571Z,91.50
2022-12-23T02:26:56.869Z,91.50
2022-12-23T02:32:05.677Z,91.50
2022-12-23T02:37:15.404Z,91.50
2022-12-23T02:42:20.670Z,91.40
2022-12-23T02:47:28.203Z,91.40
2022-12-23T02:52:34.757Z,91.50
2022-12-23T02:57:41.366Z,91.50
2022-12-23T03:02:45.560Z,91.40
2022-12-23T03:07:48.180Z,91.50
2022-12-23T03:13:01.916Z,91.50
2022-12-23T03:18:12.049Z,91.50
2022-12-23T03:23:23.737Z,91.50
2022-12-23T03:28:33.491Z,91.50
2022-12-23T03:33:41.670Z,91.50
2022-12-23T03:38:45.491Z,91.50
2022-12-23T03:43:52.581Z,91.50
2022-12-23T03:48:59.606Z,91.60
2022-12-23T03:54:07.594Z,91.60
2022-12-23T03:59:15.090Z,91.60
2022-12-23T04:04:24.899Z,91.60
2022-12-23T04:09:28.918Z,91.60
2022-12-23T04:14:32.637Z,91.60
2022-12-23T04:19:36.217Z,91.60
2022-12-23T04:24:38.912Z,91.60
2022-12-23T04:29:41.253Z,91.60
2022-12-23T04:34:44.848Z,91.50
2022-12-23T04:39:46.989Z,91.50
2022-12-23T04:44:49.143Z,91.50
2022-12-23T04:49:52.661Z,91.50
2022-12-23T04:54:54.805Z,91.60
2022-12-23T04:59:57.019Z,91.60
2022-12-23T05:05:00.538Z,91.60
2022-12-23T05:10:02.805Z,91.60
2022-12-23T05:15:06.105Z,91.60
2022-12-23T05:20:10.896Z,91.50
2022-12-23T05:25:12.968Z,91.50
2022-12-23T05:30:15.265Z,91.50
2022-12-23T05:35:18.830Z,91.50
2022-12-23T05:40:24.941Z,91.60
2022-12-23T05:45:34.735Z,91.60
2022-12-23T05:50:39.060Z,91.60
2022-12-23T05:55:41.222Z,91.70
2022-12-23T06:00:43.484Z,91.70
2022-12-23T06:05:50.377Z,91.70
2022-12-23T06:10:52.529Z,91.60
2022-12-23T06:15:54.700Z,91.60
2022-12-23T06:20:58.212Z,91.60
2022-12-23T06:26:01.176Z,91.60
2022-12-23T06:31:03.363Z,91.50
2022-12-23T06:36:08.339Z,91.40
2022-12-23T06:41:10.480Z,91.40
2022-12-23T06:46:14.124Z,91.80
2022-12-23T06:51:17.861Z,91.50
2022-12-23T06:56:20.203Z,91.60
2022-12-23T07:01:22.445Z,91.60
2022-12-23T07:06:26.029Z,91.60
2022-12-23T07:11:28.140Z,92.10
2022-12-23T07:16:30.317Z,91.60
2022-12-23T07:21:33.819Z,91.60
2022-12-23T07:26:35.992Z,91.60
2022-12-23T07:31:41.160Z,91.60
2022-12-23T07:36:45.249Z,91.60
2022-12-23T07:41:47.380Z,91.60
2022-12-23T07:46:49.664Z,91.50
2022-12-23T07:51:53.264Z,91.60
2022-12-23T07:56:55.481Z,91.60
2022-12-23T08:01:57.843Z,91.70
2022-12-23T08:07:02.996Z,91.70
2022-12-23T08:12:05.537Z,91.80
2022-12-23T08:17:07.973Z,91.80
2022-12-23T08:22:12.254Z,91.90
2022-12-23T08:27:15.156Z,92.00
2022-12-23T08:32:17.761Z,92.10
2022-12-23T08:37:21.718Z,92.00
2022-12-23T08:42:24.552Z,91.90
2022-12-23T08:47:27.244Z,91.80
2022-12-23T08:52:31.446Z,91.70
2022-12-23T08:57:35.132Z,92.20
2022-12-23T09:02:37.927Z,91.90
2022-12-23T09:07:44.057Z,92.40
2022-12-23T09:12:46.764Z,92.80
2022-12-23T09:17:49.441Z,92.60
2022-12-23T09:22:55.502Z,92.00
2022-12-23T09:27:58.354Z,91.30
2022-12-23T09:33:01.077Z,91.00
2022-12-23T09:38:08.075Z,90.80
2022-12-23T09:43:22.644Z,90.60
2022-12-23T09:48:29.729Z,90.60
2022-12-23T09:53:45.963Z,90.80
2022-12-23T09:58:55.464Z,90.80
2022-12-23T10:04:37.211Z,90.80
2022-12-23T10:09:49.384Z,90.80
2022-12-23T10:14:59.008Z,91.00
2022-12-23T10:20:15.083Z,91.00
2022-12-23T10:25:41.446Z,91.00
2022-12-23T10:31:16.811Z,90.90
2022-12-23T10:49:13.667Z,91.10
2022-12-23T10:54:33.938Z,91.30
2022-12-23T11:00:03.186Z,91.80
2022-12-23T11:05:14.755Z,91.40
2022-12-23T11:10:19.440Z,91.50
2022-12-23T11:15:28.186Z,91.40
2022-12-23T11:20:32.630Z,91.30
2022-12-23T11:25:38.085Z,91.10
2022-12-23T11:30:56.344Z,90.90
2022-12-23T11:36:06.933Z,90.60
2022-12-23T11:41:09.071Z,90.60
2022-12-23T11:46:18.319Z,90.60
2022-12-23T11:51:26.770Z,90.60
2022-12-23T11:56:34.512Z,90.80
2022-12-23T12:01:37.320Z,90.80
2022-12-23T12:06:49.836Z,91.10
2022-12-23T12:12:04.245Z,90.80
2022-12-23T12:17:16.745Z,90.70
2022-12-23T12:22:29.652Z,90.70
2022-12-23T12:27:37.506Z,90.80
2022-12-23T12:32:50.952Z,90.80
2022-12-23T12:37:59.620Z,90.80
2022-12-23T12:43:11.802Z,91.00
2022-12-23T12:48:36.375Z,91.00
2022-12-23T12:53:52.867Z,90.90
2022-12-23T12:58:54.971Z,91.00
2022-12-23T13:04:29.403Z,91.00
2022-12-23T13:09:40.357Z,91.10
2022-12-23T13:14:53.705Z,91.20
2022-12-23T13:20:03.437Z,91.30
2022-12-23T13:25:14.768Z,91.40
2022-12-23T13:30:18.531Z,91.30
2022-12-23T13:35:34.965Z,91.30
2022-12-23T13:40:46.880Z,91.20
2022-12-23T13:45:51.611Z,91.10
2022-12-23T13:50:59.818Z,91.10
2022-12-23T13:56:13.991Z,91.10
2022-12-23T14:01:34.623Z,91.20
2022-12-23T14:06:44.875Z,91.30
2022-12-23T14:11:50.066Z,91.30
2022-12-23T14:17:02.941Z,91.30
2022-12-23T14:22:29.637Z,91.40
2022-12-23T14:27:46.814Z,91.50
2022-12-23T14:32:50.151Z,91.60
2022-12-23T14:38:09.367Z,91.80
2022-12-23T14:43:31.083Z,91.70
2022-12-23T14:49:15.905Z,91.70
2022-12-23T14:54:36.708Z,91.80
2022-12-23T14:59:48.047Z,91.90
2022-12-23T15:04:54.779Z,91.90
2022-12-23T15:10:01.243Z,91.90
2022-12-23T15:15:14.495Z,92.00
2022-12-23T15:20:20.658Z,92.20
2022-12-23T15:25:24.756Z,92.30
2022-12-23T15:30:30.342Z,92.40
2022-12-23T15:35:35.940Z,92.40
2022-12-23T15:40:39.312Z,92.50
2022-12-23T15:45:43.324Z,92.50
2022-12-23T15:50:45.476Z,92.50
2022-12-23T15:55:48.958Z,92.50
2022-12-23T16:00:56.745Z,92.50
2022-12-23T16:06:11.163Z,92.50
2022-12-23T16:11:16.350Z,92.70
2022-12-23T16:16:30.696Z,92.60
2022-12-23T16:21:35.660Z,92.60
2022-12-23T16:26:42.483Z,93.00
2022-12-23T16:31:51.239Z,92.60
2022-12-23T16:36:58.061Z,92.60
2022-12-23T16:42:00.144Z,92.60
2022-12-23T16:47:08.688Z,92.60
2022-12-23T16:52:13.348Z,92.50
2022-12-23T16:57:15.444Z,92.60
2022-12-23T17:02:22.977Z,92.80
2022-12-23T17:07:26.546Z,92.80
2022-12-23T17:12:28.740Z,93.00
2022-12-23T17:17:33.049Z,93.00
2022-12-23T17:22:36.718Z,93.50
2022-12-23T17:27:39.870Z,93.10
2022-12-23T17:32:46.474Z,93.20
2022-12-23T17:37:50.107Z,93.20
2022-12-23T17:42:52.214Z,93.20
2022-12-23T17:47:56.562Z,93.20
2022-12-23T17:52:58.753Z,93.10
2022-12-23T17:58:00.869Z,93.30
2022-12-23T18:03:05.086Z,92.90
2022-12-23T18:08:07.383Z,92.80
2022-12-23T18:13:18.160Z,92.80
2022-12-23T18:18:30.153Z,92.80
2022-12-23T18:23:38.488Z,92.70
2022-12-23T18:28:42.140Z,92.70
2022-12-23T18:33:46.321Z,92.70
2022-12-23T18:38:48.492Z,92.60
2022-12-23T18:43:52.004Z,92.50
2022-12-23T18:48:55.504Z,92.60
2022-12-23T18:53:58.332Z,92.30
2022-12-23T18:59:00.481Z,92.50
2022-12-23T19:04:04.073Z,92.50
2022-12-23T19:09:07.189Z,92.50
2022-12-23T19:14:11.335Z,92.50
2022-12-23T19:19:15.219Z,92.40
2022-12-23T19:24:17.811Z,92.50
2022-12-23T19:29:20.146Z,92.50
2022-12-23T19:34:24.113Z,92.60
2022-12-23T19:39:26.535Z,92.60
2022-12-23T19:44:29.010Z,92.50
2022-12-23T19:49:32.746Z,92.60
2022-12-23T19:54:35.115Z,93.10
2022-12-23T19:59:37.565Z,92.90
2022-12-23T20:04:41.539Z,92.80
2022-12-23T20:09:44.309Z,92.90
2022-12-23T20:14:46.571Z,92.90
2022-12-23T20:19:50.151Z,92.90
2022-12-23T20:24:52.627Z,92.80
2022-12-23T20:29:54.764Z,92.90
2022-12-23T20:34:58.397Z,93.00
2022-12-23T20:40:00.816Z,93.00
2022-12-23T20:45:03.107Z,92.90
2022-12-23T20:50:08.115Z,93.10
2022-12-23T20:55:10.328Z,93.10
2022-12-23T21:00:13.809Z,93.10
2022-12-23T21:05:17.672Z,93.00
2022-12-23T21:10:19.870Z,93.10
2022-12-23T21:15:21.991Z,93.00
2022-12-23T21:20:25.756Z,93.10
2022-12-23T21:25:27.961Z,93.10
2022-12-23T21:30:30.125Z,93.00
2022-12-23T21:35:35.623Z,93.00
2022-12-23T21:40:37.683Z,93.00
2022-12-23T21:45:39.823Z,93.10
2022-12-23T21:50:43.328Z,93.20
2022-12-23T21:55:45.453Z,93.10
2022-12-23T22:00:47.599Z,93.20
2022-12-23T22:05:51.270Z,93.20
2022-12-23T22:10:53.441Z,93.30
2022-12-23T22:15:55.654Z,93.40
2022-12-23T22:21:03.934Z,93.40
2022-12-23T22:26:07.281Z,93.30
2022-12-23T22:31:17.475Z,93.50
2022-12-23T22:36:21.060Z,93.60
2022-12-23T22:41:24.788Z,93.70
2022-12-23T22:46:27.286Z,93.70
2022-12-23T22:51:32.048Z,93.70
2022-12-23T22:56:34.675Z,93.60
2022-12-23T23:01:37.152Z,93.60
2022-12-23T23:06:42.120Z,93.60
2022-12-23T23:11:45.623Z,93.50
2022-12-23T23:16:47.916Z,93.40
2022-12-23T23:21:52.062Z,93.40
2022-12-23T23:26:54.211Z,93.30
2022-12-23T23:31:56.364Z,93.30
2022-12-23T23:37:00.861Z,93.30
2022-12-23T23:42:03.007Z,93.40
2022-12-23T23:47:05.250Z,93.30
2022-12-23T23:52:08.852Z,93.40
2022-12-23T23:57:11.206Z,93.30
